sensor_id;sensor_type;location;lat;lon;timestamp;temperature;humidity
49503;DHT22;35409;48.776;9.204;2022-08-19T00:00:21;21.20;99.90
49503;DHT22;35409;48.776;9.204;2022-08-19T00:02:47;21.20;99.90
49503;DHT22;35409;48.776;9.204;2022-08-19T00:05:14;21.10;99.90
49503;DHT22;35409;48.776;9.204;2022-08-19T00:07:41;21.10;99.90
49503;DHT22;35409;48.776;9.204;2022-08-19T00:10:13;21.10;99.90
49503;DHT22;35409;48.776;9.204;2022-08-19T00:12:39;21.10;99.90
49503;DHT22;35409;48.776;9.204;2022-08-19T00:15:08;21.10;99.90
49503;DHT22;35409;48.776;9.204;2022-08-19T00:17:38;21.10;99.90
49503;DHT22;35409;48.776;9.204;2022-08-19T00:20:04;21.00;99.90
49503;DHT22;35409;48.776;9.204;2022-08-19T00:22:30;21.10;99.90
49503;DHT22;35409;48.776;9.204;2022-08-19T00:24:56;21.10;99.90
49503;DHT22;35409;48.776;9.204;2022-08-19T00:27:22;21.00;99.90
49503;DHT22;35409;48.776;9.204;2022-08-19T00:29:47;21.00;99.90
49503;DHT22;35409;48.776;9.204;2022-08-19T00:32:13;21.10;99.90
49503;DHT22;35409;48.776;9.204;2022-08-19T00:34:39;21.10;99.90
49503;DHT22;35409;48.776;9.204;2022-08-19T00:37:04;21.00;99.90
49503;DHT22;35409;48.776;9.204;2022-08-19T00:39:30;21.00;99.90
49503;DHT22;35409;48.776;9.204;2022-08-19T00:41:56;21.00;99.90
49503;DHT22;35409;48.776;9.204;2022-08-19T00:44:26;21.00;99.90
49503;DHT22;35409;48.776;9.204;2022-08-19T00:46:53;21.00;99.90
49503;DHT22;35409;48.776;9.204;2022-08-19T00:49:24;20.90;99.90
49503;DHT22;35409;48.776;9.204;2022-08-19T00:52:14;20.90;99.90
49503;DHT22;35409;48.776;9.204;2022-08-19T00:54:41;20.90;99.90
49503;DHT22;35409;48.776;9.204;2022-08-19T00:57:09;20.80;99.90
49503;DHT22;35409;48.776;9.204;2022-08-19T00:59:37;20.80;99.90
49503;DHT22;35409;48.776;9.204;2022-08-19T01:02:04;20.80;99.90
49503;DHT22;35409;48.776;9.204;2022-08-19T01:04:29;20.80;99.90
49503;DHT22;35409;48.776;9.204;2022-08-19T01:06:56;20.80;99.90
49503;DHT22;35409;48.776;9.204;2022-08-19T01:09:22;20.70;99.90
49503;DHT22;35409;48.776;9.204;2022-08-19T01:11:48;20.80;99.90
49503;DHT22;35409;48.776;9.204;2022-08-19T01:14:15;20.80;99.90
49503;DHT22;35409;48.776;9.204;2022-08-19T01:16:43;20.80;99.90
49503;DHT22;35409;48.776;9.204;2022-08-19T01:19:29;20.80;99.90
49503;DHT22;35409;48.776;9.204;2022-08-19T01:22:03;20.80;99.90
49503;DHT22;35409;48.776;9.204;2022-08-19T01:24:31;20.80;99.90
49503;DHT22;35409;48.776;9.204;2022-08-19T01:26:57;20.80;99.90
49503;DHT22;35409;48.776;9.204;2022-08-19T01:29:23;20.80;99.90
49503;DHT22;35409;48.776;9.204;2022-08-19T01:31:49;20.80;99.90
49503;DHT22;35409;48.776;9.204;2022-08-19T01:34:18;20.80;99.90
49503;DHT22;35409;48.776;9.204;2022-08-19T01:36:46;20.80;99.90
49503;DHT22;35409;48.776;9.204;2022-08-19T01:39:15;20.80;99.90
49503;DHT22;35409;48.776;9.204;2022-08-19T01:41:41;20.80;99.90
49503;DHT22;35409;48.776;9.204;2022-08-19T01:44:09;20.80;99.90
49503;DHT22;35409;48.776;9.204;2022-08-19T01:46:35;20.80;99.90
49503;DHT22;35409;48.776;9.204;2022-08-19T01:49:03;20.80;99.90
49503;DHT22;35409;48.776;9.204;2022-08-19T01:51:29;20.70;99.90
49503;DHT22;35409;48.776;9.204;2022-08-19T01:53:56;20.80;99.90
49503;DHT22;35409;48.776;9.204;2022-08-19T01:56:22;20.80;99.90
49503;DHT22;35409;48.776;9.204;2022-08-19T01:58:56;20.80;99.90
49503;DHT22;35409;48.776;9.204;2022-08-19T02:01:22;20.80;99.90
49503;DHT22;35409;48.776;9.204;2022-08-19T02:03:48;20.70;99.90
49503;DHT22;35409;48.776;9.204;2022-08-19T02:06:13;20.70;99.90
49503;DHT22;35409;48.776;9.204;2022-08-19T02:08:40;20.70;99.90
49503;DHT22;35409;48.776;9.204;2022-08-19T02:11:07;20.70;99.90
49503;DHT22;35409;48.776;9.204;2022-08-19T02:13:34;20.70;99.90
49503;DHT22;35409;48.776;9.204;2022-08-19T02:15:59;20.70;99.90
49503;DHT22;35409;48.776;9.204;2022-08-19T02:18:25;20.70;99.90
49503;DHT22;35409;48.776;9.204;2022-08-19T02:20:52;20.60;99.90
49503;DHT22;35409;48.776;9.204;2022-08-19T02:23:17;20.60;99.90
49503;DHT22;35409;48.776;9.204;2022-08-19T02:25:48;20.60;99.90
49503;DHT22;35409;48.776;9.204;2022-08-19T02:28:14;20.60;99.90
49503;DHT22;35409;48.776;9.204;2022-08-19T02:30:41;20.50;99.90
49503;DHT22;35409;48.776;9.204;2022-08-19T02:33:07;20.50;99.90
49503;DHT22;35409;48.776;9.204;2022-08-19T02:35:32;20.40;99.90
49503;DHT22;35409;48.776;9.204;2022-08-19T02:37:58;20.50;99.90
49503;DHT22;35409;48.776;9.204;2022-08-19T02:40:48;20.50;99.90
49503;DHT22;35409;48.776;9.204;2022-08-19T02:43:15;20.40;99.90
49503;DHT22;35409;48.776;9.204;2022-08-19T02:45:41;20.40;99.90
49503;DHT22;35409;48.776;9.204;2022-08-19T02:48:07;20.30;99.90
49503;DHT22;35409;48.776;9.204;2022-08-19T02:50:37;20.40;99.90
49503;DHT22;35409;48.776;9.204;2022-08-19T02:53:03;20.30;99.90
49503;DHT22;35409;48.776;9.204;2022-08-19T02:55:28;20.40;99.90
49503;DHT22;35409;48.776;9.204;2022-08-19T02:57:54;20.40;99.90
49503;DHT22;35409;48.776;9.204;2022-08-19T03:00:20;20.40;99.90
49503;DHT22;35409;48.776;9.204;2022-08-19T03:02:46;20.30;99.90
49503;DHT22;35409;48.776;9.204;2022-08-19T03:05:12;20.20;99.90
49503;DHT22;35409;48.776;9.204;2022-08-19T03:07:38;20.20;99.90
49503;DHT22;35409;48.776;9.204;2022-08-19T03:10:04;20.10;99.90
49503;DHT22;35409;48.776;9.204;2022-08-19T03:12:30;20.00;99.90
49503;DHT22;35409;48.776;9.204;2022-08-19T03:14:56;20.00;99.90
49503;DHT22;35409;48.776;9.204;2022-08-19T03:17:22;20.00;99.90
49503;DHT22;35409;48.776;9.204;2022-08-19T03:19:47;20.00;99.90
49503;DHT22;35409;48.776;9.204;2022-08-19T03:22:13;20.10;99.90
49503;DHT22;35409;48.776;9.204;2022-08-19T03:24:39;20.10;99.90
49503;DHT22;35409;48.776;9.204;2022-08-19T03:27:05;20.00;99.90
49503;DHT22;35409;48.776;9.204;2022-08-19T03:29:32;20.00;99.90
49503;DHT22;35409;48.776;9.204;2022-08-19T03:31:59;19.90;99.90
49503;DHT22;35409;48.776;9.204;2022-08-19T03:34:30;19.90;99.90
49503;DHT22;35409;48.776;9.204;2022-08-19T03:36:58;19.90;99.90
49503;DHT22;35409;48.776;9.204;2022-08-19T03:39:25;19.90;99.90
49503;DHT22;35409;48.776;9.204;2022-08-19T03:41:52;19.90;99.90
49503;DHT22;35409;48.776;9.204;2022-08-19T03:44:21;19.90;99.90
49503;DHT22;35409;48.776;9.204;2022-08-19T03:46:50;19.90;99.90
49503;DHT22;35409;48.776;9.204;2022-08-19T03:49:17;19.90;99.90
49503;DHT22;35409;48.776;9.204;2022-08-19T03:51:43;19.90;99.90
49503;DHT22;35409;48.776;9.204;2022-08-19T03:54:11;19.90;99.90
49503;DHT22;35409;48.776;9.204;2022-08-19T03:56:39;19.80;99.90
49503;DHT22;35409;48.776;9.204;2022-08-19T03:59:07;19.80;99.90
49503;DHT22;35409;48.776;9.204;2022-08-19T04:01:34;19.80;99.90
49503;DHT22;35409;48.776;9.204;2022-08-19T04:04:00;19.80;99.90
49503;DHT22;35409;48.776;9.204;2022-08-19T04:06:29;19.90;99.90
49503;DHT22;35409;48.776;9.204;2022-08-19T04:08:56;19.80;99.90
49503;DHT22;35409;48.776;9.204;2022-08-19T04:11:29;19.80;99.90
49503;DHT22;35409;48.776;9.204;2022-08-19T04:13:56;19.80;99.90
49503;DHT22;35409;48.776;9.204;2022-08-19T04:16:24;19.80;99.90
49503;DHT22;35409;48.776;9.204;2022-08-19T04:18:50;19.80;99.90
49503;DHT22;35409;48.776;9.204;2022-08-19T04:21:22;19.80;99.90
49503;DHT22;35409;48.776;9.204;2022-08-19T04:23:48;19.70;99.90
49503;DHT22;35409;48.776;9.204;2022-08-19T04:26:16;19.80;99.90
49503;DHT22;35409;48.776;9.204;2022-08-19T04:28:43;19.70;99.90
49503;DHT22;35409;48.776;9.204;2022-08-19T04:31:14;19.70;99.90
49503;DHT22;35409;48.776;9.204;2022-08-19T04:33:40;19.70;99.90
49503;DHT22;35409;48.776;9.204;2022-08-19T04:36:06;19.70;99.90
49503;DHT22;35409;48.776;9.204;2022-08-19T04:38:32;19.70;99.90
49503;DHT22;35409;48.776;9.204;2022-08-19T04:40:57;19.70;99.90
49503;DHT22;35409;48.776;9.204;2022-08-19T04:43:41;19.70;99.90
49503;DHT22;35409;48.776;9.204;2022-08-19T04:46:12;19.70;99.90
49503;DHT22;35409;48.776;9.204;2022-08-19T04:48:38;19.70;99.90
49503;DHT22;35409;48.776;9.204;2022-08-19T04:51:10;19.70;99.90
49503;DHT22;35409;48.776;9.204;2022-08-19T04:53:39;19.70;99.90
49503;DHT22;35409;48.776;9.204;2022-08-19T04:56:11;19.70;99.90
49503;DHT22;35409;48.776;9.204;2022-08-19T04:58:38;19.80;99.90
49503;DHT22;35409;48.776;9.204;2022-08-19T05:01:05;19.80;99.90
49503;DHT22;35409;48.776;9.204;2022-08-19T05:03:31;19.80;99.90
49503;DHT22;35409;48.776;9.204;2022-08-19T05:06:04;19.80;99.90
49503;DHT22;35409;48.776;9.204;2022-08-19T05:08:29;19.80;99.90
49503;DHT22;35409;48.776;9.204;2022-08-19T05:10:56;19.80;99.90
49503;DHT22;35409;48.776;9.204;2022-08-19T05:13:23;19.80;99.90
49503;DHT22;35409;48.776;9.204;2022-08-19T05:15:58;19.80;99.90
49503;DHT22;35409;48.776;9.204;2022-08-19T05:18:25;19.90;99.90
49503;DHT22;35409;48.776;9.204;2022-08-19T05:21:14;19.90;99.90
49503;DHT22;35409;48.776;9.204;2022-08-19T05:23:59;19.90;99.90
49503;DHT22;35409;48.776;9.204;2022-08-19T05:26:25;19.90;99.90
49503;DHT22;35409;48.776;9.204;2022-08-19T05:28:54;19.90;99.90
49503;DHT22;35409;48.776;9.204;2022-08-19T05:31:20;19.90;99.90
49503;DHT22;35409;48.776;9.204;2022-08-19T05:33:46;19.90;99.90
49503;DHT22;35409;48.776;9.204;2022-08-19T05:36:12;19.90;99.90
49503;DHT22;35409;48.776;9.204;2022-08-19T05:38:38;19.90;99.90
49503;DHT22;35409;48.776;9.204;2022-08-19T05:41:09;19.90;99.90
49503;DHT22;35409;48.776;9.204;2022-08-19T05:43:35;19.90;99.90
49503;DHT22;35409;48.776;9.204;2022-08-19T05:46:03;19.90;99.90
49503;DHT22;35409;48.776;9.204;2022-08-19T05:48:34;20.00;99.90
49503;DHT22;35409;48.776;9.204;2022-08-19T05:51:05;20.00;99.90
49503;DHT22;35409;48.776;9.204;2022-08-19T05:53:32;20.00;99.90
49503;DHT22;35409;48.776;9.204;2022-08-19T05:56:10;20.00;99.90
49503;DHT22;35409;48.776;9.204;2022-08-19T05:58:36;20.00;99.90
49503;DHT22;35409;48.776;9.204;2022-08-19T06:01:03;20.00;99.90
49503;DHT22;35409;48.776;9.204;2022-08-19T06:03:32;20.00;99.90
49503;DHT22;35409;48.776;9.204;2022-08-19T06:05:59;20.00;99.90
49503;DHT22;35409;48.776;9.204;2022-08-19T06:08:26;20.00;99.90
49503;DHT22;35409;48.776;9.204;2022-08-19T06:10:52;20.00;99.90
49503;DHT22;35409;48.776;9.204;2022-08-19T06:13:18;20.00;99.90
49503;DHT22;35409;48.776;9.204;2022-08-19T06:15:45;20.00;99.90
49503;DHT22;35409;48.776;9.204;2022-08-19T06:18:13;20.00;99.90
49503;DHT22;35409;48.776;9.204;2022-08-19T06:20:39;20.00;99.90
49503;DHT22;35409;48.776;9.204;2022-08-19T06:23:05;20.00;99.90
49503;DHT22;35409;48.776;9.204;2022-08-19T06:25:30;19.90;99.90
49503;DHT22;35409;48.776;9.204;2022-08-19T06:27:56;20.00;99.90
49503;DHT22;35409;48.776;9.204;2022-08-19T06:30:21;20.00;99.90
49503;DHT22;35409;48.776;9.204;2022-08-19T06:32:47;20.00;99.90
49503;DHT22;35409;48.776;9.204;2022-08-19T06:35:13;19.90;99.90
49503;DHT22;35409;48.776;9.204;2022-08-19T06:37:40;19.80;99.90
49503;DHT22;35409;48.776;9.204;2022-08-19T06:40:07;19.80;99.90
49503;DHT22;35409;48.776;9.204;2022-08-19T06:42:34;19.70;99.90
49503;DHT22;35409;48.776;9.204;2022-08-19T06:45:00;19.60;99.90
49503;DHT22;35409;48.776;9.204;2022-08-19T06:47:29;19.50;99.90
49503;DHT22;35409;48.776;9.204;2022-08-19T06:49:57;19.50;99.90
49503;DHT22;35409;48.776;9.204;2022-08-19T06:52:29;19.40;99.90
49503;DHT22;35409;48.776;9.204;2022-08-19T06:54:55;19.50;99.90
49503;DHT22;35409;48.776;9.204;2022-08-19T06:57:22;19.50;99.90
49503;DHT22;35409;48.776;9.204;2022-08-19T06:59:48;19.50;99.90
49503;DHT22;35409;48.776;9.204;2022-08-19T07:02:14;19.50;99.90
49503;DHT22;35409;48.776;9.204;2022-08-19T07:04:39;19.50;99.90
49503;DHT22;35409;48.776;9.204;2022-08-19T07:07:09;19.60;99.90
49503;DHT22;35409;48.776;9.204;2022-08-19T07:09:36;19.70;99.90
49503;DHT22;35409;48.776;9.204;2022-08-19T07:12:05;19.70;99.90
49503;DHT22;35409;48.776;9.204;2022-08-19T07:14:32;19.70;99.90
49503;DHT22;35409;48.776;9.204;2022-08-19T07:16:58;19.70;99.90
49503;DHT22;35409;48.776;9.204;2022-08-19T07:19:25;19.70;99.90
49503;DHT22;35409;48.776;9.204;2022-08-19T07:21:54;19.80;99.90
49503;DHT22;35409;48.776;9.204;2022-08-19T07:24:22;19.80;99.90
49503;DHT22;35409;48.776;9.204;2022-08-19T07:26:50;19.80;99.90
49503;DHT22;35409;48.776;9.204;2022-08-19T07:29:16;19.80;99.90
49503;DHT22;35409;48.776;9.204;2022-08-19T07:31:42;19.80;99.90
49503;DHT22;35409;48.776;9.204;2022-08-19T07:34:10;19.80;99.90
49503;DHT22;35409;48.776;9.204;2022-08-19T07:36:38;19.90;99.90
49503;DHT22;35409;48.776;9.204;2022-08-19T07:39:08;19.90;99.90
49503;DHT22;35409;48.776;9.204;2022-08-19T07:41:35;19.90;99.90
49503;DHT22;35409;48.776;9.204;2022-08-19T07:44:03;19.90;99.90
49503;DHT22;35409;48.776;9.204;2022-08-19T07:46:33;19.90;99.90
49503;DHT22;35409;48.776;9.204;2022-08-19T07:48:59;19.90;99.90
49503;DHT22;35409;48.776;9.204;2022-08-19T07:51:26;19.80;99.90
49503;DHT22;35409;48.776;9.204;2022-08-19T07:53:51;19.80;99.90
49503;DHT22;35409;48.776;9.204;2022-08-19T07:56:20;19.80;99.90
49503;DHT22;35409;48.776;9.204;2022-08-19T07:58:48;19.80;99.90
49503;DHT22;35409;48.776;9.204;2022-08-19T08:01:16;19.80;99.90
49503;DHT22;35409;48.776;9.204;2022-08-19T08:03:43;19.70;99.90
49503;DHT22;35409;48.776;9.204;2022-08-19T08:06:27;19.60;99.90
49503;DHT22;35409;48.776;9.204;2022-08-19T08:09:32;19.40;99.90
49503;DHT22;35409;48.776;9.204;2022-08-19T08:12:05;19.10;99.90
49503;DHT22;35409;48.776;9.204;2022-08-19T08:14:36;19.00;99.90
49503;DHT22;35409;48.776;9.204;2022-08-19T08:17:03;18.80;99.90
49503;DHT22;35409;48.776;9.204;2022-08-19T08:19:28;18.70;99.90
49503;DHT22;35409;48.776;9.204;2022-08-19T08:21:59;18.60;99.90
49503;DHT22;35409;48.776;9.204;2022-08-19T08:24:27;18.50;99.90
49503;DHT22;35409;48.776;9.204;2022-08-19T08:26:53;18.40;99.90
49503;DHT22;35409;48.776;9.204;2022-08-19T08:29:19;18.40;99.90
49503;DHT22;35409;48.776;9.204;2022-08-19T08:31:45;18.30;99.90
49503;DHT22;35409;48.776;9.204;2022-08-19T08:34:12;18.30;99.90
49503;DHT22;35409;48.776;9.204;2022-08-19T08:36:42;18.50;99.90
49503;DHT22;35409;48.776;9.204;2022-08-19T08:39:13;18.40;99.90
49503;DHT22;35409;48.776;9.204;2022-08-19T08:41:58;18.40;99.90
49503;DHT22;35409;48.776;9.204;2022-08-19T08:47:04;18.60;99.90
49503;DHT22;35409;48.776;9.204;2022-08-19T08:49:44;18.50;99.90
49503;DHT22;35409;48.776;9.204;2022-08-19T08:52:24;18.50;99.90
49503;DHT22;35409;48.776;9.204;2022-08-19T08:54:52;18.60;99.90
49503;DHT22;35409;48.776;9.204;2022-08-19T08:57:49;18.60;99.90
49503;DHT22;35409;48.776;9.204;2022-08-19T09:00:28;18.70;99.90
49503;DHT22;35409;48.776;9.204;2022-08-19T09:02:55;18.90;99.90
49503;DHT22;35409;48.776;9.204;2022-08-19T09:05:25;19.10;99.90
49503;DHT22;35409;48.776;9.204;2022-08-19T09:08:04;19.20;99.90
49503;DHT22;35409;48.776;9.204;2022-08-19T09:10:49;19.40;99.90
49503;DHT22;35409;48.776;9.204;2022-08-19T09:13:53;19.50;99.90
49503;DHT22;35409;48.776;9.204;2022-08-19T09:16:21;19.70;99.90
49503;DHT22;35409;48.776;9.204;2022-08-19T09:18:57;19.70;99.90
49503;DHT22;35409;48.776;9.204;2022-08-19T09:21:25;19.80;99.90
49503;DHT22;35409;48.776;9.204;2022-08-19T09:23:52;19.90;99.90
49503;DHT22;35409;48.776;9.204;2022-08-19T09:26:20;19.90;99.90
49503;DHT22;35409;48.776;9.204;2022-08-19T09:28:48;19.90;99.90
49503;DHT22;35409;48.776;9.204;2022-08-19T09:31:18;20.00;99.90
49503;DHT22;35409;48.776;9.204;2022-08-19T09:33:44;20.00;99.90
49503;DHT22;35409;48.776;9.204;2022-08-19T09:36:12;20.00;99.90
49503;DHT22;35409;48.776;9.204;2022-08-19T09:38:39;20.00;99.90
49503;DHT22;35409;48.776;9.204;2022-08-19T09:41:08;20.00;99.90
49503;DHT22;35409;48.776;9.204;2022-08-19T09:43:36;20.00;99.90
49503;DHT22;35409;48.776;9.204;2022-08-19T09:46:05;20.10;99.90
49503;DHT22;35409;48.776;9.204;2022-08-19T09:48:36;20.00;99.90
49503;DHT22;35409;48.776;9.204;2022-08-19T09:51:06;20.00;99.90
49503;DHT22;35409;48.776;9.204;2022-08-19T09:53:34;19.80;99.90
49503;DHT22;35409;48.776;9.204;2022-08-19T09:56:00;19.80;99.90
49503;DHT22;35409;48.776;9.204;2022-08-19T09:58:26;19.70;99.90
49503;DHT22;35409;48.776;9.204;2022-08-19T10:00:54;19.80;99.90
49503;DHT22;35409;48.776;9.204;2022-08-19T10:03:20;19.90;99.90
49503;DHT22;35409;48.776;9.204;2022-08-19T10:05:46;19.90;99.90
49503;DHT22;35409;48.776;9.204;2022-08-19T10:08:27;20.00;99.90
49503;DHT22;35409;48.776;9.204;2022-08-19T10:10:54;20.00;99.90
49503;DHT22;35409;48.776;9.204;2022-08-19T10:13:24;20.10;99.90
49503;DHT22;35409;48.776;9.204;2022-08-19T10:15:53;20.20;99.90
49503;DHT22;35409;48.776;9.204;2022-08-19T10:18:20;20.30;99.90
49503;DHT22;35409;48.776;9.204;2022-08-19T10:20:47;20.30;99.90
49503;DHT22;35409;48.776;9.204;2022-08-19T10:23:13;20.10;99.90
49503;DHT22;35409;48.776;9.204;2022-08-19T10:25:41;19.90;99.90
49503;DHT22;35409;48.776;9.204;2022-08-19T10:28:07;19.80;99.90
49503;DHT22;35409;48.776;9.204;2022-08-19T10:30:35;19.70;99.90
49503;DHT22;35409;48.776;9.204;2022-08-19T10:33:01;19.70;99.90
49503;DHT22;35409;48.776;9.204;2022-08-19T10:35:26;19.60;99.90
49503;DHT22;35409;48.776;9.204;2022-08-19T10:37:55;19.60;99.90
49503;DHT22;35409;48.776;9.204;2022-08-19T10:40:25;19.60;99.90
49503;DHT22;35409;48.776;9.204;2022-08-19T10:42:51;19.60;99.90
49503;DHT22;35409;48.776;9.204;2022-08-19T10:45:17;19.60;99.90
49503;DHT22;35409;48.776;9.204;2022-08-19T10:47:43;19.70;99.90
49503;DHT22;35409;48.776;9.204;2022-08-19T10:50:09;19.70;99.90
49503;DHT22;35409;48.776;9.204;2022-08-19T10:52:54;19.90;99.90
49503;DHT22;35409;48.776;9.204;2022-08-19T10:55:22;20.10;99.90
49503;DHT22;35409;48.776;9.204;2022-08-19T10:58:17;20.20;99.90
49503;DHT22;35409;48.776;9.204;2022-08-19T11:00:55;20.40;99.90
49503;DHT22;35409;48.776;9.204;2022-08-19T11:03:22;20.50;99.90
49503;DHT22;35409;48.776;9.204;2022-08-19T11:06:03;20.60;99.90
49503;DHT22;35409;48.776;9.204;2022-08-19T11:08:29;20.70;99.90
49503;DHT22;35409;48.776;9.204;2022-08-19T11:10:59;20.70;99.90
49503;DHT22;35409;48.776;9.204;2022-08-19T11:13:31;20.80;99.90
49503;DHT22;35409;48.776;9.204;2022-08-19T11:16:05;20.80;99.90
49503;DHT22;35409;48.776;9.204;2022-08-19T11:18:32;20.80;99.90
49503;DHT22;35409;48.776;9.204;2022-08-19T11:21:07;20.80;99.90
49503;DHT22;35409;48.776;9.204;2022-08-19T11:23:33;20.90;99.90
49503;DHT22;35409;48.776;9.204;2022-08-19T11:25:59;21.00;99.90
49503;DHT22;35409;48.776;9.204;2022-08-19T11:28:26;21.10;99.90
49503;DHT22;35409;48.776;9.204;2022-08-19T11:30:52;21.20;99.90
49503;DHT22;35409;48.776;9.204;2022-08-19T11:33:17;21.30;99.90
49503;DHT22;35409;48.776;9.204;2022-08-19T11:35:44;21.40;99.90
49503;DHT22;35409;48.776;9.204;2022-08-19T11:38:10;21.60;99.90
49503;DHT22;35409;48.776;9.204;2022-08-19T11:40:37;21.70;99.90
49503;DHT22;35409;48.776;9.204;2022-08-19T11:43:03;21.80;99.90
49503;DHT22;35409;48.776;9.204;2022-08-19T11:45:30;21.90;99.90
49503;DHT22;35409;48.776;9.204;2022-08-19T11:47:56;22.10;99.90
49503;DHT22;35409;48.776;9.204;2022-08-19T11:50:22;22.20;99.90
49503;DHT22;35409;48.776;9.204;2022-08-19T11:52:49;22.30;99.90
49503;DHT22;35409;48.776;9.204;2022-08-19T11:55:15;22.30;99.90
49503;DHT22;35409;48.776;9.204;2022-08-19T11:57:41;22.30;99.90
49503;DHT22;35409;48.776;9.204;2022-08-19T12:00:09;22.40;99.90
49503;DHT22;35409;48.776;9.204;2022-08-19T12:02:36;22.30;99.90
49503;DHT22;35409;48.776;9.204;2022-08-19T12:05:02;22.40;99.90
49503;DHT22;35409;48.776;9.204;2022-08-19T12:07:28;22.30;99.90
49503;DHT22;35409;48.776;9.204;2022-08-19T12:09:56;22.30;99.90
49503;DHT22;35409;48.776;9.204;2022-08-19T12:12:22;22.30;99.90
49503;DHT22;35409;48.776;9.204;2022-08-19T12:14:49;22.30;99.90
49503;DHT22;35409;48.776;9.204;2022-08-19T12:17:22;22.20;99.90
49503;DHT22;35409;48.776;9.204;2022-08-19T12:19:48;22.20;99.90
49503;DHT22;35409;48.776;9.204;2022-08-19T12:22:14;22.20;99.90
49503;DHT22;35409;48.776;9.204;2022-08-19T12:24:39;22.10;99.90
49503;DHT22;35409;48.776;9.204;2022-08-19T12:27:05;22.10;99.90
49503;DHT22;35409;48.776;9.204;2022-08-19T12:29:30;22.10;99.90
49503;DHT22;35409;48.776;9.204;2022-08-19T12:31:58;22.10;99.90
49503;DHT22;35409;48.776;9.204;2022-08-19T12:34:27;22.10;99.90
49503;DHT22;35409;48.776;9.204;2022-08-19T12:36:57;22.00;99.90
49503;DHT22;35409;48.776;9.204;2022-08-19T12:39:23;21.90;99.90
49503;DHT22;35409;48.776;9.204;2022-08-19T12:41:49;21.90;99.90
49503;DHT22;35409;48.776;9.204;2022-08-19T12:44:15;21.80;99.90
49503;DHT22;35409;48.776;9.204;2022-08-19T12:46:42;21.70;99.90
49503;DHT22;35409;48.776;9.204;2022-08-19T12:49:08;21.70;99.90
49503;DHT22;35409;48.776;9.204;2022-08-19T12:51:33;21.70;99.90
49503;DHT22;35409;48.776;9.204;2022-08-19T12:53:59;21.70;99.90
49503;DHT22;35409;48.776;9.204;2022-08-19T12:56:24;21.80;99.90
49503;DHT22;35409;48.776;9.204;2022-08-19T12:58:50;21.80;99.90
49503;DHT22;35409;48.776;9.204;2022-08-19T13:01:17;21.80;99.90
49503;DHT22;35409;48.776;9.204;2022-08-19T13:03:44;21.90;99.90
49503;DHT22;35409;48.776;9.204;2022-08-19T13:06:11;22.00;99.90
49503;DHT22;35409;48.776;9.204;2022-08-19T13:08:37;22.00;99.90
49503;DHT22;35409;48.776;9.204;2022-08-19T13:11:12;22.10;99.90
49503;DHT22;35409;48.776;9.204;2022-08-19T13:13:40;22.10;99.90
49503;DHT22;35409;48.776;9.204;2022-08-19T13:16:07;22.00;99.90
49503;DHT22;35409;48.776;9.204;2022-08-19T13:18:32;22.00;99.90
49503;DHT22;35409;48.776;9.204;2022-08-19T13:21:05;22.00;99.90
49503;DHT22;35409;48.776;9.204;2022-08-19T13:23:33;21.90;99.90
49503;DHT22;35409;48.776;9.204;2022-08-19T13:26:00;21.90;99.90
49503;DHT22;35409;48.776;9.204;2022-08-19T13:28:27;21.80;99.90
49503;DHT22;35409;48.776;9.204;2022-08-19T13:31:15;21.70;99.90
49503;DHT22;35409;48.776;9.204;2022-08-19T13:33:59;21.60;99.90
49503;DHT22;35409;48.776;9.204;2022-08-19T13:36:25;21.50;99.90
49503;DHT22;35409;48.776;9.204;2022-08-19T13:38:51;21.40;99.90
49503;DHT22;35409;48.776;9.204;2022-08-19T13:41:17;21.30;99.90
49503;DHT22;35409;48.776;9.204;2022-08-19T13:43:44;21.20;99.90
49503;DHT22;35409;48.776;9.204;2022-08-19T13:46:10;21.20;99.90
49503;DHT22;35409;48.776;9.204;2022-08-19T13:48:39;21.10;99.90
49503;DHT22;35409;48.776;9.204;2022-08-19T13:51:07;21.10;99.90
49503;DHT22;35409;48.776;9.204;2022-08-19T13:53:39;21.00;99.90
49503;DHT22;35409;48.776;9.204;2022-08-19T13:56:14;20.80;99.90
49503;DHT22;35409;48.776;9.204;2022-08-19T13:58:40;20.80;99.90
49503;DHT22;35409;48.776;9.204;2022-08-19T14:01:06;20.70;99.90
49503;DHT22;35409;48.776;9.204;2022-08-19T14:03:33;20.50;99.90
49503;DHT22;35409;48.776;9.204;2022-08-19T14:05:59;20.40;99.90
49503;DHT22;35409;48.776;9.204;2022-08-19T14:08:25;20.40;99.90
49503;DHT22;35409;48.776;9.204;2022-08-19T14:10:50;20.30;99.90
49503;DHT22;35409;48.776;9.204;2022-08-19T14:13:20;20.30;99.90
49503;DHT22;35409;48.776;9.204;2022-08-19T14:15:46;20.20;99.90
49503;DHT22;35409;48.776;9.204;2022-08-19T14:18:13;20.10;99.90
49503;DHT22;35409;48.776;9.204;2022-08-19T14:20:39;20.10;99.90
49503;DHT22;35409;48.776;9.204;2022-08-19T14:23:05;20.10;99.90
49503;DHT22;35409;48.776;9.204;2022-08-19T14:25:32;20.10;99.90
49503;DHT22;35409;48.776;9.204;2022-08-19T14:27:58;20.10;99.90
49503;DHT22;35409;48.776;9.204;2022-08-19T14:30:32;20.10;99.90
49503;DHT22;35409;48.776;9.204;2022-08-19T14:33:02;20.20;99.90
49503;DHT22;35409;48.776;9.204;2022-08-19T14:35:29;20.20;99.90
49503;DHT22;35409;48.776;9.204;2022-08-19T14:37:55;20.30;99.90
49503;DHT22;35409;48.776;9.204;2022-08-19T14:40:24;20.30;99.90
49503;DHT22;35409;48.776;9.204;2022-08-19T14:42:56;20.40;99.90
49503;DHT22;35409;48.776;9.204;2022-08-19T14:45:25;20.50;99.90
49503;DHT22;35409;48.776;9.204;2022-08-19T14:47:51;20.60;99.90
49503;DHT22;35409;48.776;9.204;2022-08-19T14:50:18;20.70;99.90
49503;DHT22;35409;48.776;9.204;2022-08-19T14:52:47;20.70;99.90
49503;DHT22;35409;48.776;9.204;2022-08-19T14:55:14;20.80;99.90
49503;DHT22;35409;48.776;9.204;2022-08-19T14:57:41;20.80;99.90
49503;DHT22;35409;48.776;9.204;2022-08-19T15:00:08;20.80;99.90
49503;DHT22;35409;48.776;9.204;2022-08-19T15:02:38;20.90;99.90
49503;DHT22;35409;48.776;9.204;2022-08-19T15:05:04;20.90;99.90
49503;DHT22;35409;48.776;9.204;2022-08-19T15:07:29;21.00;99.90
49503;DHT22;35409;48.776;9.204;2022-08-19T15:09:55;21.00;99.90
49503;DHT22;35409;48.776;9.204;2022-08-19T15:12:21;21.10;99.90
49503;DHT22;35409;48.776;9.204;2022-08-19T15:14:47;21.30;99.90
49503;DHT22;35409;48.776;9.204;2022-08-19T15:17:16;21.40;99.90
49503;DHT22;35409;48.776;9.204;2022-08-19T15:19:42;21.60;99.90
49503;DHT22;35409;48.776;9.204;2022-08-19T15:22:07;21.90;99.90
49503;DHT22;35409;48.776;9.204;2022-08-19T15:24:33;22.10;99.90
49503;DHT22;35409;48.776;9.204;2022-08-19T15:27:01;22.30;99.90
49503;DHT22;35409;48.776;9.204;2022-08-19T15:29:26;22.50;99.90
49503;DHT22;35409;48.776;9.204;2022-08-19T15:31:52;22.80;99.90
49503;DHT22;35409;48.776;9.204;2022-08-19T15:34:21;23.00;99.90
49503;DHT22;35409;48.776;9.204;2022-08-19T15:36:47;23.00;99.90
49503;DHT22;35409;48.776;9.204;2022-08-19T15:39:12;23.20;99.90